createdAt,value
2017-01-03T00:01:01.112Z,0.6
2017-01-03T00:02:11.403Z,0.54
2017-01-03T00:03:21.758Z,0.54
2017-01-03T00:04:32.069Z,0.56
2017-01-03T00:05:41.976Z,0.58
2017-01-03T00:06:51.822Z,0.6
2017-01-03T00:08:01.253Z,0.56
2017-01-03T00:09:11.499Z,0.56
2017-01-03T00:10:21.419Z,0.6
2017-01-03T00:11:31.384Z,0.66
2017-01-03T00:12:41.264Z,0.54
2017-01-03T00:13:50.761Z,0.6
2017-01-03T00:15:00.730Z,0.63
2017-01-03T00:16:10.188Z,0.61
2017-01-03T00:17:20.085Z,0.53
2017-01-03T00:18:30.481Z,0.57
2017-01-03T00:19:40.801Z,0.53
2017-01-03T00:20:51.059Z,0.53
2017-01-03T00:22:00.902Z,0.48
2017-01-03T00:23:10.826Z,0.49
2017-01-03T00:24:20.666Z,0.53
2017-01-03T00:25:30.570Z,0.53
2017-01-03T00:26:40.418Z,0.48
2017-01-03T00:27:50.666Z,0.56
2017-01-03T00:29:00.547Z,0.42
2017-01-03T00:30:10.799Z,0.48
2017-01-03T00:31:21.079Z,0.49
2017-01-03T00:32:31.036Z,0.46
2017-01-03T00:33:40.568Z,0.48
2017-01-03T00:34:50.844Z,0.49
2017-01-03T00:36:00.790Z,0.61
2017-01-03T00:37:11.160Z,0.58
2017-01-03T00:38:21.004Z,0.56
2017-01-03T00:39:30.957Z,0.54
2017-01-03T00:40:41.339Z,0.57
2017-01-03T00:41:51.587Z,0.58
2017-01-03T00:43:01.425Z,0.58
2017-01-03T00:44:11.331Z,0.54
2017-01-03T00:45:20.764Z,0.58
2017-01-03T00:46:30.596Z,0.54
2017-01-03T00:47:40.023Z,0.56
2017-01-03T00:48:50.335Z,0.58
2017-01-03T00:50:00.574Z,0.6
2017-01-03T00:51:10.853Z,0.58
2017-01-03T00:52:21.123Z,0.6
2017-01-03T00:53:30.662Z,0.58
2017-01-03T00:54:40.483Z,0.6
2017-01-03T00:55:50.750Z,0.66
2017-01-03T00:57:00.622Z,0.72
2017-01-03T00:58:10.939Z,0.64
2017-01-03T00:59:20.798Z,0.66
2017-01-03T01:00:31.088Z,0.63
2017-01-03T01:01:41.360Z,0.71
2017-01-03T01:02:51.249Z,0.61
2017-01-03T01:04:01.510Z,0.67
2017-01-03T01:05:11.753Z,0.72
2017-01-03T01:06:22.031Z,0.76
2017-01-03T01:07:32.436Z,0.61
2017-01-03T01:08:42.392Z,0.68
2017-01-03T01:09:52.360Z,0.76
2017-01-03T01:11:02.221Z,0.78
2017-01-03T01:12:12.448Z,0.68
2017-01-03T01:13:22.325Z,0.84
2017-01-03T01:14:32.578Z,0.76
2017-01-03T01:15:42.818Z,0.79
2017-01-03T01:16:52.247Z,0.81
2017-01-03T01:18:02.075Z,0.78
2017-01-03T01:19:11.502Z,0.82
2017-01-03T01:20:21.795Z,0.84
2017-01-03T01:21:31.654Z,0.75
2017-01-03T01:22:42.074Z,0.81
2017-01-03T01:23:52.348Z,0.81
2017-01-03T01:25:02.632Z,0.78
2017-01-03T01:26:12.194Z,0.79
2017-01-03T01:27:22.049Z,0.84
2017-01-03T01:28:32.303Z,0.81
2017-01-03T01:29:42.538Z,0.81
2017-01-03T01:30:52.800Z,0.81
2017-01-03T01:32:02.673Z,0.78
2017-01-03T01:33:12.906Z,0.79
2017-01-03T01:34:22.764Z,0.78
2017-01-03T01:35:32.599Z,0.79
2017-01-03T01:37:14.599Z,0.86
2017-01-03T01:38:24.979Z,0.93
2017-01-03T01:39:35.414Z,0.82
2017-01-03T01:40:45.920Z,0.9
2017-01-03T01:41:55.753Z,0.96
2017-01-03T01:43:05.593Z,1
2017-01-03T01:44:15.828Z,1
2017-01-03T01:45:25.717Z,0.97
2017-01-03T01:46:35.981Z,0.99
2017-01-03T01:47:45.817Z,0.92
2017-01-03T01:48:56.111Z,0.96
2017-01-03T01:50:05.946Z,0.94
2017-01-03T01:51:16.224Z,0.92
2017-01-03T01:52:26.595Z,0.86
2017-01-03T01:53:36.852Z,0.93
2017-01-03T01:54:47.121Z,0.97
2017-01-03T01:55:56.976Z,0.96
2017-01-03T01:57:06.844Z,1.03
2017-01-03T01:58:17.280Z,1.04
2017-01-03T01:59:27.170Z,0.96
2017-01-03T02:00:37.465Z,0.96
2017-01-03T02:01:47.718Z,0.92
2017-01-03T02:02:57.156Z,0.97
2017-01-03T02:04:06.597Z,0.96
2017-01-03T02:05:16.891Z,0.93
2017-01-03T02:06:27.165Z,0.94
2017-01-03T02:07:37.450Z,0.94
2017-01-03T02:08:48.316Z,0.9
2017-01-03T02:09:58.664Z,0.93
2017-01-03T02:11:08.550Z,0.92
2017-01-03T02:12:18.430Z,0.84
2017-01-03T02:13:27.487Z,0.92
2017-01-03T02:14:37.747Z,0.82
2017-01-03T02:15:48.240Z,0.85
2017-01-03T02:16:58.128Z,0.85
2017-01-03T02:18:07.983Z,0.84
2017-01-03T02:19:17.955Z,0.78
2017-01-03T02:20:27.426Z,0.88
2017-01-03T02:21:37.896Z,0.85
2017-01-03T02:22:47.414Z,0.82
2017-01-03T02:23:57.659Z,0.85
2017-01-03T02:25:07.918Z,0.78
2017-01-03T02:26:18.253Z,0.81
2017-01-03T02:27:28.543Z,0.78
2017-01-03T02:28:38.772Z,0.84
2017-01-03T02:29:49.090Z,0.75
2017-01-03T02:30:59.489Z,0.75
2017-01-03T02:32:09.834Z,0.66
2017-01-03T02:33:20.153Z,0.74
2017-01-03T02:34:30.052Z,0.63
2017-01-03T02:35:39.910Z,0.78
2017-01-03T02:36:50.257Z,0.6
2017-01-03T02:38:00.547Z,0.58
2017-01-03T02:39:10.577Z,0.64
2017-01-03T02:40:19.654Z,0.6
2017-01-03T02:41:29.563Z,0.64
2017-01-03T02:42:39.849Z,0.58
2017-01-03T02:43:50.068Z,0.56
2017-01-03T02:45:00.308Z,0.6
2017-01-03T02:46:10.570Z,0.63
2017-01-03T02:47:20.530Z,0.6
2017-01-03T02:48:30.799Z,0.56
2017-01-03T02:49:40.514Z,0.57
2017-01-03T02:50:50.848Z,0.6
2017-01-03T02:52:00.705Z,0.5
2017-01-03T02:53:10.972Z,0.58
2017-01-03T02:54:21.344Z,0.57
2017-01-03T02:55:31.190Z,0.54
2017-01-03T02:56:41.478Z,0.56
2017-01-03T02:57:51.762Z,0.53
2017-01-03T02:59:02.052Z,0.48
2017-01-03T03:00:11.476Z,0.48
2017-01-03T03:01:21.317Z,0.56
2017-01-03T03:02:31.575Z,0.49
2017-01-03T03:03:41.824Z,0.48
2017-01-03T03:04:52.059Z,0.46
2017-01-03T03:06:02.333Z,0.48
2017-01-03T03:07:11.793Z,0.49
2017-01-03T03:08:21.630Z,0.49
2017-01-03T03:09:31.485Z,0.45
2017-01-03T03:10:40.532Z,0.48
2017-01-03T03:11:50.767Z,0.45
2017-01-03T03:13:00.194Z,0.53
2017-01-03T03:14:10.049Z,0.45
2017-01-03T03:15:20.352Z,0.5
2017-01-03T03:16:30.465Z,0.48
2017-01-03T03:17:40.801Z,0.43
2017-01-03T03:18:50.667Z,0.5
2017-01-03T03:20:00.146Z,0.43
2017-01-03T03:21:09.986Z,0.43
2017-01-03T03:22:19.928Z,0.45
2017-01-03T03:23:30.169Z,0.38
2017-01-03T03:24:39.608Z,0.35
2017-01-03T03:25:49.153Z,0.35
2017-01-03T03:26:59.057Z,0.39
2017-01-03T03:28:09.380Z,0.4
2017-01-03T03:29:19.237Z,0.33
2017-01-03T03:30:29.074Z,0.28
2017-01-03T03:31:39.345Z,0.24
2017-01-03T03:32:49.197Z,0.2
2017-01-03T03:33:59.050Z,0.24
2017-01-03T03:35:09.292Z,0.22
2017-01-03T03:36:19.525Z,0.21
2017-01-03T03:37:29.394Z,0.25
2017-01-03T03:38:39.231Z,0.25
2017-01-03T03:39:49.114Z,0.3
2017-01-03T03:40:58.948Z,0.28
2017-01-03T03:42:08.381Z,0.35
2017-01-03T03:43:18.611Z,0.33
2017-01-03T03:44:28.906Z,0.33
2017-01-03T03:45:38.345Z,0.36
2017-01-03T03:46:48.225Z,0.43
2017-01-03T03:47:58.463Z,0.43
2017-01-03T03:49:08.386Z,0.42
2017-01-03T03:50:18.623Z,0.43
2017-01-03T03:51:28.517Z,0.45
2017-01-03T03:52:38.372Z,0.5
2017-01-03T03:53:48.330Z,0.48
2017-01-03T03:54:58.235Z,0.5
2017-01-03T03:56:08.706Z,0.61
2017-01-03T03:57:18.942Z,0.54
2017-01-03T03:58:28.814Z,0.63
2017-01-03T03:59:38.653Z,0.61
2017-01-03T04:00:48.530Z,0.53
2017-01-03T04:01:59.265Z,0.63
2017-01-03T04:03:09.495Z,0.53
2017-01-03T04:04:19.823Z,0.6
2017-01-03T04:05:30.156Z,0.61
2017-01-03T04:06:39.587Z,0.6
2017-01-03T04:07:49.461Z,0.58
2017-01-03T04:08:59.288Z,0.63
2017-01-03T04:10:08.319Z,0.68
2017-01-03T04:11:18.558Z,0.64
2017-01-03T04:12:28.394Z,0.66
2017-01-03T04:13:38.655Z,0.74
2017-01-03T04:14:49.082Z,0.67
2017-01-03T04:15:59.069Z,0.75
2017-01-03T04:17:08.550Z,0.66
2017-01-03T04:18:18.952Z,0.68
2017-01-03T04:19:28.439Z,0.78
2017-01-03T04:20:37.889Z,0.76
2017-01-03T04:21:48.125Z,0.68
2017-01-03T04:22:57.974Z,0.71
2017-01-03T04:24:07.931Z,0.74
2017-01-03T04:25:16.975Z,0.79
2017-01-03T04:26:27.243Z,0.82
2017-01-03T04:27:37.104Z,0.81
2017-01-03T04:28:47.391Z,0.84
2017-01-03T04:29:57.662Z,0.81
2017-01-03T04:31:08.052Z,0.92
2017-01-03T04:32:18.311Z,0.9
2017-01-03T04:33:28.190Z,0.88
2017-01-03T04:34:38.112Z,0.88
2017-01-03T04:35:48.366Z,0.86
2017-01-03T04:36:58.601Z,0.85
2017-01-03T04:38:08.840Z,0.79
2017-01-03T04:39:19.073Z,0.81
2017-01-03T04:40:28.925Z,0.81
2017-01-03T04:41:39.158Z,0.81
2017-01-03T04:42:48.614Z,0.76
2017-01-03T04:43:58.438Z,0.81
2017-01-03T04:45:07.888Z,0.84
2017-01-03T04:46:17.787Z,0.79
2017-01-03T04:47:27.829Z,0.81
2017-01-03T04:48:38.152Z,0.85
2017-01-03T04:49:48.655Z,0.85
2017-01-03T04:50:58.572Z,0.82
2017-01-03T04:52:07.610Z,0.84
2017-01-03T04:53:17.037Z,0.79
2017-01-03T04:54:27.283Z,0.78
2017-01-03T04:55:37.110Z,0.78
2017-01-03T04:56:47.373Z,0.81
2017-01-03T04:57:57.209Z,0.82
2017-01-03T04:59:07.668Z,0.85
2017-01-03T05:00:17.613Z,0.79
2017-01-03T05:01:27.932Z,0.81
2017-01-03T05:02:38.199Z,0.85
2017-01-03T05:03:48.071Z,0.81
2017-01-03T05:04:58.306Z,0.85
2017-01-03T05:06:08.540Z,0.84
2017-01-03T05:07:17.970Z,0.81
2017-01-03T05:08:27.815Z,0.85
2017-01-03T05:09:37.313Z,0.88
2017-01-03T05:10:47.558Z,0.84
2017-01-03T05:11:57.877Z,0.81
2017-01-03T05:13:07.823Z,0.78
2017-01-03T05:14:17.684Z,0.85
2017-01-03T05:15:27.987Z,0.85
2017-01-03T05:16:38.278Z,0.9
2017-01-03T05:17:48.575Z,0.86
2017-01-03T05:18:58.852Z,0.82
2017-01-03T05:20:08.866Z,0.88
2017-01-03T05:21:19.123Z,0.86
2017-01-03T05:22:28.959Z,0.93
2017-01-03T05:23:38.802Z,0.9
2017-01-03T05:24:49.065Z,0.84
2017-01-03T05:25:58.949Z,0.93
2017-01-03T05:27:09.178Z,0.85
2017-01-03T05:28:18.269Z,0.86
2017-01-03T05:29:28.597Z,0.85
2017-01-03T05:30:38.490Z,0.94
2017-01-03T05:31:48.349Z,0.93
2017-01-03T05:32:58.186Z,0.93
2017-01-03T05:34:08.019Z,0.88
2017-01-03T05:35:17.846Z,0.9
2017-01-03T05:36:27.718Z,0.9
2017-01-03T05:37:37.229Z,0.94
2017-01-03T05:38:47.540Z,0.93
2017-01-03T05:39:57.511Z,0.88
2017-01-03T05:41:07.372Z,0.86
2017-01-03T05:42:16.122Z,0.85
2017-01-03T05:43:25.945Z,0.79
2017-01-03T05:44:36.276Z,0.92
2017-01-03T05:45:46.205Z,0.9
2017-01-03T05:46:56.036Z,0.84
2017-01-03T05:48:06.054Z,0.9
2017-01-03T05:49:16.362Z,0.86
2017-01-03T05:50:26.190Z,0.9
2017-01-03T05:51:36.643Z,0.82
2017-01-03T05:52:46.516Z,0.9
2017-01-03T05:53:56.406Z,0.85
2017-01-03T05:55:06.244Z,0.82
2017-01-03T05:56:16.122Z,0.88
2017-01-03T05:57:26.369Z,0.93
2017-01-03T05:58:36.659Z,0.93
2017-01-03T05:59:47.004Z,0.81
2017-01-03T06:00:56.837Z,0.82
2017-01-03T06:02:06.677Z,0.81
2017-01-03T06:03:16.222Z,0.86
2017-01-03T06:04:26.178Z,0.86
2017-01-03T06:05:36.019Z,0.81
2017-01-03T06:06:45.455Z,0.88
2017-01-03T06:07:55.349Z,0.81
2017-01-03T06:09:05.586Z,0.86
2017-01-03T06:10:16.043Z,0.84
2017-01-03T06:11:25.630Z,0.78
2017-01-03T06:12:35.455Z,0.82
2017-01-03T06:13:44.493Z,0.81
2017-01-03T06:14:54.387Z,0.92
2017-01-03T06:16:04.656Z,0.86
2017-01-03T06:17:14.498Z,0.92
2017-01-03T06:18:24.783Z,0.86
2017-01-03T06:19:35.062Z,0.92
2017-01-03T06:20:45.301Z,0.96
2017-01-03T06:21:55.125Z,0.92
2017-01-03T06:23:05.392Z,1
2017-01-03T06:24:15.648Z,0.88
2017-01-03T06:25:25.478Z,0.94
2017-01-03T06:26:35.852Z,0.92
2017-01-03T06:27:45.685Z,0.93
2017-01-03T06:28:56.111Z,0.94
2017-01-03T06:30:05.975Z,0.84
2017-01-03T06:31:16.218Z,0.84
2017-01-03T06:32:26.079Z,0.92
2017-01-03T06:33:36.344Z,0.94
2017-01-03T06:34:46.199Z,0.92
2017-01-03T06:35:56.440Z,0.92
2017-01-03T06:37:05.920Z,0.85
2017-01-03T06:38:16.177Z,0.85
2017-01-03T06:39:25.628Z,1
2017-01-03T06:40:35.494Z,0.85
2017-01-03T06:41:45.736Z,0.85
2017-01-03T06:42:55.606Z,0.92
2017-01-03T06:44:05.923Z,0.9
2017-01-03T06:45:16.253Z,0.93
2017-01-03T06:46:25.708Z,0.92
2017-01-03T06:47:35.592Z,0.9
2017-01-03T06:48:45.816Z,0.85
2017-01-03T06:49:55.279Z,0.84
2017-01-03T06:51:04.711Z,0.92
2017-01-03T06:52:14.951Z,0.85
2017-01-03T06:53:24.786Z,0.97
2017-01-03T06:54:34.245Z,0.9
2017-01-03T06:55:44.122Z,0.84
2017-01-03T06:56:54.361Z,0.94
2017-01-03T06:58:04.405Z,0.9
2017-01-03T06:59:14.722Z,0.93
2017-01-03T07:00:25.050Z,0.9
2017-01-03T07:01:34.945Z,0.86
2017-01-03T07:02:45.298Z,0.9
2017-01-03T07:03:55.138Z,0.86
2017-01-03T07:05:04.562Z,0.88
2017-01-03T07:06:14.802Z,0.9
2017-01-03T07:07:25.042Z,0.86
2017-01-03T07:08:35.321Z,0.97
2017-01-03T07:09:45.550Z,0.86
2017-01-03T07:10:55.805Z,0.96
2017-01-03T07:12:06.093Z,0.97
2017-01-03T07:13:16.429Z,0.96
2017-01-03T07:14:26.245Z,0.96
2017-01-03T07:15:36.525Z,1.03
2017-01-03T07:16:46.419Z,1
2017-01-03T07:17:56.246Z,1.02
2017-01-03T07:19:06.114Z,1.02
2017-01-03T07:20:16.025Z,0.97
2017-01-03T07:21:25.855Z,0.97
2017-01-03T07:22:35.731Z,1.04
2017-01-03T07:23:45.578Z,0.97
2017-01-03T07:24:55.419Z,0.96
2017-01-03T07:26:05.654Z,1.02
2017-01-03T07:27:15.945Z,0.99
2017-01-03T07:28:26.201Z,1.02
2017-01-03T07:29:36.589Z,1
2017-01-03T07:30:46.864Z,1.02
2017-01-03T07:31:57.130Z,1.02
2017-01-03T07:33:07.475Z,1.02
2017-01-03T07:34:17.736Z,1
2017-01-03T07:35:28.166Z,0.96
2017-01-03T07:36:37.640Z,0.88
2017-01-03T07:37:47.471Z,0.85
2017-01-03T07:38:57.706Z,0.94
2017-01-03T07:40:07.942Z,0.88
2017-01-03T07:41:18.206Z,0.92
2017-01-03T07:42:28.042Z,1
2017-01-03T07:43:38.320Z,0.94
2017-01-03T07:44:48.182Z,0.86
2017-01-03T07:45:58.429Z,1
2017-01-03T07:47:08.680Z,1.03
2017-01-03T07:48:18.920Z,0.92
2017-01-03T07:49:28.779Z,0.99
2017-01-03T07:50:39.050Z,0.97
2017-01-03T07:51:48.922Z,1.02
2017-01-03T07:52:58.763Z,1.04
2017-01-03T07:54:09.003Z,1.06
2017-01-03T07:55:18.878Z,1.06
2017-01-03T07:56:29.115Z,1.04
2017-01-03T07:57:39.477Z,1.12
2017-01-03T07:58:49.312Z,1.06
2017-01-03T07:59:59.610Z,1.12
2017-01-03T08:01:09.940Z,1.15
2017-01-03T08:02:19.812Z,1.03
2017-01-03T08:03:30.155Z,1.08
2017-01-03T08:04:40.399Z,1.12
2017-01-03T08:05:50.641Z,1.02
2017-01-03T08:07:00.909Z,1.04
2017-01-03T08:08:10.824Z,1.12
2017-01-03T08:09:20.649Z,1
2017-01-03T08:10:30.542Z,1.15
2017-01-03T08:11:40.934Z,1.17
2017-01-03T08:12:51.208Z,1.15
2017-01-03T08:14:01.041Z,1.15
2017-01-03T08:15:11.331Z,1.15
2017-01-03T08:16:21.173Z,1.18
2017-01-03T08:17:31.408Z,1.21
2017-01-03T08:18:41.675Z,1.22
2017-01-03T08:19:51.499Z,1.22
2017-01-03T08:21:01.801Z,1.17
2017-01-03T08:22:12.070Z,1.2
2017-01-03T08:23:22.325Z,1.17
2017-01-03T08:24:32.589Z,1.22
2017-01-03T08:25:42.843Z,1.2
2017-01-03T08:26:53.115Z,1.25
2017-01-03T08:28:03.018Z,1.21
2017-01-03T08:29:13.302Z,1.21
2017-01-03T08:30:23.583Z,1.21
2017-01-03T08:31:33.955Z,1.33
2017-01-03T08:32:43.837Z,1.25
2017-01-03T08:33:54.091Z,1.21
2017-01-03T08:35:04.341Z,1.24
2017-01-03T08:36:14.574Z,1.25
2017-01-03T08:37:24.561Z,1.28
2017-01-03T08:38:34.401Z,1.17
2017-01-03T08:39:44.668Z,1.22
2017-01-03T08:40:55.031Z,1.24
2017-01-03T08:42:05.261Z,1.28
2017-01-03T08:43:15.488Z,1.22
2017-01-03T08:44:25.769Z,1.35
2017-01-03T08:45:36.147Z,1.33
2017-01-03T08:46:45.576Z,1.32
2017-01-03T08:47:55.850Z,1.3
2017-01-03T08:49:05.296Z,1.35
2017-01-03T08:50:15.114Z,1.32
2017-01-03T08:51:25.536Z,1.35
2017-01-03T08:52:35.778Z,1.35
2017-01-03T08:53:46.070Z,1.33
2017-01-03T08:54:56.329Z,1.3
2017-01-03T08:56:06.223Z,1.35
2017-01-03T08:57:16.492Z,1.3
2017-01-03T08:58:26.797Z,1.32
2017-01-03T08:59:37.104Z,1.32
2017-01-03T09:00:47.407Z,1.33
2017-01-03T09:01:57.231Z,1.38
2017-01-03T09:03:07.485Z,1.43
2017-01-03T09:04:17.755Z,1.47
2017-01-03T09:05:28.015Z,1.42
2017-01-03T09:06:38.434Z,1.46
2017-01-03T09:07:48.310Z,1.47
2017-01-03T09:08:58.546Z,1.42
2017-01-03T09:10:08.391Z,1.42
2017-01-03T09:11:18.719Z,1.46
2017-01-03T09:12:28.962Z,1.51
2017-01-03T09:13:39.218Z,1.5
2017-01-03T09:14:49.530Z,1.43
2017-01-03T09:15:59.762Z,1.48
2017-01-03T09:17:10.088Z,1.57
2017-01-03T09:18:19.948Z,1.5
2017-01-03T09:19:30.217Z,1.54
2017-01-03T09:20:40.624Z,1.53
2017-01-03T09:21:50.886Z,1.57
2017-01-03T09:23:01.318Z,1.64
2017-01-03T09:24:11.571Z,1.6
2017-01-03T09:25:21.839Z,1.62
2017-01-03T09:26:32.111Z,1.58
2017-01-03T09:27:41.966Z,1.58
2017-01-03T09:28:51.807Z,1.58
2017-01-03T09:30:02.105Z,1.54
2017-01-03T09:31:11.952Z,1.53
2017-01-03T09:32:22.196Z,1.58
2017-01-03T09:33:32.450Z,1.55
2017-01-03T09:34:42.760Z,1.5
2017-01-03T09:35:53.007Z,1.54
2017-01-03T09:37:03.276Z,1.6
2017-01-03T09:38:13.106Z,1.47
2017-01-03T09:39:23.388Z,1.57
2017-01-03T09:40:33.730Z,1.5
2017-01-03T09:41:43.976Z,1.53
2017-01-03T09:42:54.309Z,1.64
2017-01-03T09:44:04.625Z,1.57
2017-01-03T09:45:14.496Z,1.48
2017-01-03T09:46:24.781Z,1.57
2017-01-03T09:47:34.681Z,1.54
2017-01-03T09:48:44.539Z,1.48
2017-01-03T09:49:54.367Z,1.51
2017-01-03T09:51:04.618Z,1.57
2017-01-03T09:52:14.890Z,1.58
2017-01-03T09:53:25.172Z,1.54
2017-01-03T09:54:34.995Z,1.55
2017-01-03T09:55:44.917Z,1.54
2017-01-03T09:56:55.258Z,1.62
2017-01-03T09:58:05.530Z,1.58
2017-01-03T09:59:15.354Z,1.62
2017-01-03T10:00:25.636Z,1.62
2017-01-03T10:01:35.478Z,1.67
2017-01-03T10:02:44.968Z,1.53
2017-01-03T10:03:55.208Z,1.66
2017-01-03T10:05:05.476Z,1.72
2017-01-03T10:06:15.876Z,1.66
2017-01-03T10:07:25.751Z,1.72
2017-01-03T10:08:35.997Z,1.76
2017-01-03T10:09:46.273Z,1.73
2017-01-03T10:10:56.594Z,1.69
2017-01-03T10:12:06.844Z,1.76
2017-01-03T10:13:17.085Z,1.72
2017-01-03T10:14:27.324Z,1.72
2017-01-03T10:15:37.578Z,1.76
2017-01-03T10:16:47.863Z,1.72
2017-01-03T10:17:58.172Z,1.7
2017-01-03T10:19:08.407Z,1.54
2017-01-03T10:20:17.872Z,1.7
2017-01-03T10:21:28.113Z,1.54
2017-01-03T10:22:37.990Z,1.66
2017-01-03T10:23:48.276Z,1.7
2017-01-03T10:24:58.512Z,1.72
2017-01-03T10:26:08.368Z,1.7
2017-01-03T10:27:18.627Z,1.66
2017-01-03T10:28:28.866Z,1.79
2017-01-03T10:29:39.110Z,1.73
2017-01-03T10:30:49.378Z,1.8
2017-01-03T10:31:59.772Z,1.8
2017-01-03T10:33:09.646Z,1.66
2017-01-03T10:34:19.524Z,1.74
2017-01-03T10:35:29.776Z,1.76
2017-01-03T10:36:40.025Z,1.77
2017-01-03T10:37:50.317Z,1.76
2017-01-03T10:39:00.596Z,1.69
2017-01-03T10:40:10.887Z,1.8
2017-01-03T10:41:21.156Z,1.74
2017-01-03T10:42:31.000Z,1.76
2017-01-03T10:43:40.444Z,1.79
2017-01-03T10:44:50.674Z,1.77
2017-01-03T10:46:00.527Z,1.8
2017-01-03T10:47:10.360Z,1.84
2017-01-03T10:48:20.648Z,1.82
2017-01-03T10:49:31.074Z,1.74
2017-01-03T10:50:41.356Z,1.82
2017-01-03T10:51:51.598Z,1.82
2017-01-03T10:53:01.436Z,1.85
2017-01-03T10:54:11.324Z,1.88
2017-01-03T10:55:21.227Z,1.84
2017-01-03T10:56:31.597Z,1.92
2017-01-03T10:57:41.949Z,2
2017-01-03T10:58:51.849Z,2
2017-01-03T11:00:01.687Z,2.03
2017-01-03T11:01:11.958Z,2.03
2017-01-03T11:02:21.841Z,2.01
2017-01-03T11:03:31.274Z,1.95
2017-01-03T11:04:41.508Z,1.92
2017-01-03T11:05:51.749Z,2
2017-01-03T11:07:02.094Z,2.05
2017-01-03T11:08:12.404Z,1.98
2017-01-03T11:09:22.731Z,2.06
2017-01-03T11:10:33.078Z,2
2017-01-03T11:11:43.352Z,2.03
2017-01-03T11:12:53.612Z,2
2017-01-03T11:14:03.865Z,2.01
2017-01-03T11:15:14.254Z,2.01
2017-01-03T11:16:24.528Z,2.1
2017-01-03T11:17:34.828Z,2.1
2017-01-03T11:18:45.065Z,2.08
2017-01-03T11:19:54.946Z,2.1
2017-01-03T11:21:04.766Z,2.09
2017-01-03T11:22:15.002Z,2.18
2017-01-03T11:23:25.386Z,2.12
2017-01-03T11:24:35.326Z,2.15
2017-01-03T11:25:45.645Z,2.12
2017-01-03T11:26:55.877Z,2.16
2017-01-03T11:28:06.108Z,2.1
2017-01-03T11:29:16.463Z,2.13
2017-01-03T11:30:26.728Z,2.09
2017-01-03T11:31:36.568Z,2.21
2017-01-03T11:32:46.968Z,2.26
2017-01-03T11:33:57.236Z,2.27
2017-01-03T11:35:07.478Z,2.24
2017-01-03T11:36:17.764Z,2.3
2017-01-03T11:37:27.642Z,2.18
2017-01-03T11:38:37.635Z,2.15
2017-01-03T11:39:47.479Z,2.18
2017-01-03T11:40:57.908Z,2.16
2017-01-03T11:42:08.253Z,2.18
2017-01-03T11:43:18.118Z,2.27
2017-01-03T11:44:27.991Z,2.24
2017-01-03T11:45:38.246Z,2.27
2017-01-03T11:46:48.543Z,2.21
2017-01-03T11:47:58.823Z,2.24
2017-01-03T11:49:09.066Z,2.27
2017-01-03T11:50:19.347Z,2.28
2017-01-03T11:51:29.591Z,2.27
2017-01-03T11:52:39.425Z,2.34
2017-01-03T11:53:49.468Z,2.28
2017-01-03T11:54:59.760Z,2.39
2017-01-03T11:56:10.008Z,2.36
2017-01-03T11:57:20.502Z,2.31
2017-01-03T11:58:30.741Z,2.34
2017-01-03T11:59:41.135Z,2.39
2017-01-03T12:00:51.413Z,2.26
2017-01-03T12:02:01.685Z,2.44
2017-01-03T12:03:11.948Z,2.48
2017-01-03T12:04:22.171Z,2.34
2017-01-03T12:05:32.013Z,2.26
2017-01-03T12:06:42.274Z,2.33
2017-01-03T12:07:52.593Z,2.33
2017-01-03T12:09:02.906Z,2.27
2017-01-03T12:10:13.172Z,2.36
2017-01-03T12:11:23.482Z,2.37
2017-01-03T12:12:33.785Z,2.34
2017-01-03T12:13:44.075Z,2.34
2017-01-03T12:14:53.954Z,2.33
2017-01-03T12:16:04.242Z,2.33
2017-01-03T12:17:14.524Z,2.26
2017-01-03T12:18:23.966Z,2.24
2017-01-03T12:19:34.233Z,2.37
2017-01-03T12:20:43.667Z,2.36
2017-01-03T12:21:53.578Z,2.33
2017-01-03T12:23:03.420Z,2.31
2017-01-03T12:24:13.668Z,2.27
2017-01-03T12:25:23.990Z,2.34
2017-01-03T12:26:34.279Z,2.3
2017-01-03T12:27:44.131Z,2.19
2017-01-03T12:28:54.551Z,2.27
2017-01-03T12:30:04.788Z,2.24
2017-01-03T12:31:15.037Z,2.19
2017-01-03T12:32:25.269Z,2.23
2017-01-03T12:33:35.547Z,2.31
2017-01-03T12:34:45.584Z,2.37
2017-01-03T12:35:55.452Z,2.36
2017-01-03T12:37:05.716Z,2.42
2017-01-03T12:38:15.195Z,2.26
2017-01-03T12:39:25.072Z,2.33
2017-01-03T12:40:35.449Z,2.37
2017-01-03T12:41:44.917Z,2.31
2017-01-03T12:42:55.156Z,2.34
2017-01-03T12:44:05.512Z,2.34
2017-01-03T12:45:14.957Z,2.27
2017-01-03T12:46:24.849Z,2.34
2017-01-03T12:47:35.126Z,2.33
2017-01-03T12:48:44.971Z,2.39
2017-01-03T12:49:55.276Z,2.34
2017-01-03T12:51:05.546Z,2.33
2017-01-03T12:52:15.380Z,2.39
2017-01-03T12:53:25.271Z,2.36
2017-01-03T12:54:35.532Z,2.34
2017-01-03T12:55:45.785Z,2.34
2017-01-03T12:56:55.620Z,2.3
2017-01-03T12:58:05.858Z,2.26
2017-01-03T12:59:15.721Z,2.36
2017-01-03T13:00:25.958Z,2.31
2017-01-03T13:01:36.238Z,2.42
2017-01-03T13:02:46.780Z,2.28
2017-01-03T13:03:56.681Z,2.27
2017-01-03T13:05:06.912Z,2.3
2017-01-03T13:06:16.760Z,2.36
2017-01-03T13:07:27.009Z,2.31
2017-01-03T13:08:37.333Z,2.31
2017-01-03T13:09:47.605Z,2.31
2017-01-03T13:10:57.862Z,2.31
2017-01-03T13:12:08.108Z,2.31
2017-01-03T13:13:18.459Z,2.21
2017-01-03T13:14:28.707Z,2.34
2017-01-03T13:15:38.949Z,2.28
2017-01-03T13:16:49.172Z,2.28
2017-01-03T13:17:59.030Z,2.23
2017-01-03T13:19:09.258Z,2.16
2017-01-03T13:20:19.513Z,2.15
2017-01-03T13:21:29.926Z,2.13
2017-01-03T13:22:39.776Z,2.15
2017-01-03T13:23:50.052Z,2.27
2017-01-03T13:25:00.026Z,2.26
2017-01-03T13:26:10.301Z,2.26
2017-01-03T13:27:20.645Z,2.24
2017-01-03T13:28:30.958Z,2.23
2017-01-03T13:29:41.243Z,2.28
2017-01-03T13:30:51.520Z,2.31
2017-01-03T13:32:01.367Z,2.31
2017-01-03T13:33:11.228Z,2.33
2017-01-03T13:34:21.484Z,2.33
2017-01-03T13:35:31.412Z,2.28
2017-01-03T13:36:41.263Z,2.18
2017-01-03T13:37:51.148Z,2.19
2017-01-03T13:39:00.581Z,2.23
2017-01-03T13:40:10.997Z,2.26
2017-01-03T13:41:21.232Z,2.18
2017-01-03T13:42:31.461Z,2.26
2017-01-03T13:43:40.899Z,2.28
2017-01-03T13:44:51.250Z,2.3
2017-01-03T13:46:01.163Z,2.23
2017-01-03T13:47:11.417Z,2.28
2017-01-03T13:48:20.947Z,2.27
2017-01-03T13:49:31.230Z,2.24
2017-01-03T13:50:41.470Z,2.28
2017-01-03T13:51:51.923Z,2.23
2017-01-03T13:53:01.767Z,2.24
2017-01-03T13:54:11.627Z,2.08
2017-01-03T13:55:21.883Z,2.09
2017-01-03T13:56:31.729Z,2.1
2017-01-03T13:57:42.035Z,2.1
2017-01-03T13:58:52.345Z,2.12
2017-01-03T14:00:02.254Z,2.1
2017-01-03T14:01:12.523Z,2.1
2017-01-03T14:02:22.405Z,2.09
2017-01-03T14:03:32.745Z,2.08
2017-01-03T14:04:43.000Z,2.1
2017-01-03T14:05:53.253Z,2.1
2017-01-03T14:07:03.535Z,2.05
2017-01-03T14:08:13.770Z,2.1
2017-01-03T14:09:24.075Z,2.1
2017-01-03T14:10:34.414Z,2.12
2017-01-03T14:11:44.676Z,2.1
2017-01-03T14:12:54.513Z,2.18
2017-01-03T14:14:04.878Z,2.1
2017-01-03T14:15:15.183Z,2.13
2017-01-03T14:16:25.458Z,2.08
2017-01-03T14:17:35.692Z,2.13
2017-01-03T14:18:45.528Z,2.18
2017-01-03T14:19:55.791Z,2.1
2017-01-03T14:21:06.059Z,2.08
2017-01-03T14:22:16.299Z,2.09
2017-01-03T14:23:26.201Z,2.1
2017-01-03T14:24:36.464Z,2.06
2017-01-03T14:25:46.715Z,2.18
2017-01-03T14:26:56.987Z,2.08
2017-01-03T14:28:07.326Z,2.06
2017-01-03T14:29:17.595Z,2.15
2017-01-03T14:30:27.851Z,2.15
2017-01-03T14:31:38.101Z,2.1
2017-01-03T14:32:48.348Z,2.08
2017-01-03T14:33:57.920Z,2.09
2017-01-03T14:35:08.184Z,2.16
2017-01-03T14:36:18.153Z,2.15
2017-01-03T14:37:28.517Z,2.09
2017-01-03T14:38:37.948Z,2.13
2017-01-03T14:39:48.263Z,2.1
2017-01-03T14:40:58.519Z,2.13
2017-01-03T14:42:08.352Z,2.12
2017-01-03T14:43:18.291Z,2.13
2017-01-03T14:44:28.560Z,2.19
2017-01-03T14:45:38.400Z,2.06
2017-01-03T14:46:48.291Z,2.1
2017-01-03T14:47:58.568Z,2.08
2017-01-03T14:49:08.822Z,2.13
2017-01-03T14:50:18.741Z,2.1
2017-01-03T14:51:28.999Z,2.09
2017-01-03T14:52:39.289Z,2.1
2017-01-03T14:53:49.137Z,2.09
2017-01-03T14:54:59.427Z,2.09
2017-01-03T14:56:09.987Z,2.18
2017-01-03T14:57:19.921Z,2.1
2017-01-03T14:58:30.246Z,2.09
2017-01-03T14:59:39.717Z,2.08
2017-01-03T15:00:49.992Z,2.16
2017-01-03T15:01:59.900Z,2.13
2017-01-03T15:03:09.789Z,2.1
2017-01-03T15:04:20.165Z,2.05
2017-01-03T15:05:30.601Z,2.1
2017-01-03T15:06:40.495Z,2.12
2017-01-03T15:07:50.876Z,2.15
2017-01-03T15:09:01.136Z,2.1
2017-01-03T15:10:11.001Z,2.13
2017-01-03T15:11:21.304Z,2.15
2017-01-03T15:12:31.255Z,2.15
2017-01-03T15:13:41.143Z,2.15
2017-01-03T15:14:51.108Z,2.16
2017-01-03T15:16:01.466Z,2.18
2017-01-03T15:17:11.498Z,2.15
2017-01-03T15:18:21.758Z,2.13
2017-01-03T15:19:31.451Z,2.15
2017-01-03T15:20:41.862Z,2.1
2017-01-03T15:21:52.198Z,2.09
2017-01-03T15:23:02.114Z,2.09
2017-01-03T15:24:12.425Z,2.03
2017-01-03T15:25:22.695Z,2.03
2017-01-03T15:26:32.153Z,1.95
2017-01-03T15:27:42.174Z,1.95
2017-01-03T15:28:52.540Z,1.98
2017-01-03T15:30:03.224Z,1.95
2017-01-03T15:31:13.632Z,1.94
2017-01-03T15:32:23.791Z,1.92
2017-01-03T15:33:33.665Z,2.09
2017-01-03T15:34:44.333Z,2.01
2017-01-03T15:35:54.931Z,2.05
2017-01-03T15:37:05.478Z,1.95
2017-01-03T15:38:15.889Z,1.97